sensor_id;sensor_type;location;lat;lon;timestamp;temperature;humidity
27306;DHT22;14792;50.886;6.468;2023-03-01T00:01:20;-0.40;99.90
27306;DHT22;14792;50.886;6.468;2023-03-01T00:04:21;-0.40;99.90
27306;DHT22;14792;50.886;6.468;2023-03-01T00:07:22;-0.40;99.90
27306;DHT22;14792;50.886;6.468;2023-03-01T00:10:24;-0.40;99.90
27306;DHT22;14792;50.886;6.468;2023-03-01T00:13:25;-0.40;99.90
27306;DHT22;14792;50.886;6.468;2023-03-01T00:16:28;-0.50;99.90
27306;DHT22;14792;50.886;6.468;2023-03-01T00:19:28;-0.50;99.90
27306;DHT22;14792;50.886;6.468;2023-03-01T00:22:30;-0.50;99.90
27306;DHT22;14792;50.886;6.468;2023-03-01T00:25:32;-0.50;99.90
27306;DHT22;14792;50.886;6.468;2023-03-01T00:28:33;-0.60;99.90
27306;DHT22;14792;50.886;6.468;2023-03-01T00:31:35;-0.70;99.90
27306;DHT22;14792;50.886;6.468;2023-03-01T00:34:36;-0.70;99.90
27306;DHT22;14792;50.886;6.468;2023-03-01T00:37:38;-0.80;99.90
27306;DHT22;14792;50.886;6.468;2023-03-01T00:40:40;-0.80;99.90
27306;DHT22;14792;50.886;6.468;2023-03-01T00:43:41;-0.80;99.90
27306;DHT22;14792;50.886;6.468;2023-03-01T00:46:43;-0.90;99.90
27306;DHT22;14792;50.886;6.468;2023-03-01T00:49:45;-0.90;99.90
27306;DHT22;14792;50.886;6.468;2023-03-01T00:52:46;-1.00;99.90
27306;DHT22;14792;50.886;6.468;2023-03-01T00:55:48;-0.90;99.90
27306;DHT22;14792;50.886;6.468;2023-03-01T00:58:49;-0.90;99.90
27306;DHT22;14792;50.886;6.468;2023-03-01T01:01:51;-1.00;99.90
27306;DHT22;14792;50.886;6.468;2023-03-01T01:04:53;-0.90;99.90
27306;DHT22;14792;50.886;6.468;2023-03-01T01:07:54;-1.00;99.90
27306;DHT22;14792;50.886;6.468;2023-03-01T01:10:56;-1.00;99.90
27306;DHT22;14792;50.886;6.468;2023-03-01T01:13:58;-1.00;99.90
27306;DHT22;14792;50.886;6.468;2023-03-01T01:16:59;-1.10;99.90
27306;DHT22;14792;50.886;6.468;2023-03-01T01:20:00;-1.10;99.90
27306;DHT22;14792;50.886;6.468;2023-03-01T01:23:02;-1.10;99.90
27306;DHT22;14792;50.886;6.468;2023-03-01T01:26:07;-1.20;99.90
27306;DHT22;14792;50.886;6.468;2023-03-01T01:29:08;-1.20;99.90
27306;DHT22;14792;50.886;6.468;2023-03-01T01:32:09;-1.20;99.90
27306;DHT22;14792;50.886;6.468;2023-03-01T01:35:11;-1.30;99.90
27306;DHT22;14792;50.886;6.468;2023-03-01T01:38:13;-1.30;99.90
27306;DHT22;14792;50.886;6.468;2023-03-01T01:41:14;-1.30;99.90
27306;DHT22;14792;50.886;6.468;2023-03-01T01:44:20;-1.30;99.90
27306;DHT22;14792;50.886;6.468;2023-03-01T01:47:20;-1.30;99.90
27306;DHT22;14792;50.886;6.468;2023-03-01T01:50:22;-1.40;99.90
27306;DHT22;14792;50.886;6.468;2023-03-01T01:53:23;-1.30;99.90
27306;DHT22;14792;50.886;6.468;2023-03-01T01:56:25;-1.50;99.90
27306;DHT22;14792;50.886;6.468;2023-03-01T01:59:26;-1.50;99.90
27306;DHT22;14792;50.886;6.468;2023-03-01T02:02:28;-1.50;99.90
27306;DHT22;14792;50.886;6.468;2023-03-01T02:08:40;-1.60;99.90
27306;DHT22;14792;50.886;6.468;2023-03-01T02:11:42;-1.70;99.90
27306;DHT22;14792;50.886;6.468;2023-03-01T02:14:43;-1.70;99.90
27306;DHT22;14792;50.886;6.468;2023-03-01T02:17:46;-1.70;99.90
27306;DHT22;14792;50.886;6.468;2023-03-01T02:20:54;-1.70;99.90
27306;DHT22;14792;50.886;6.468;2023-03-01T02:23:53;-1.70;99.90
27306;DHT22;14792;50.886;6.468;2023-03-01T02:26:54;-1.70;99.90
27306;DHT22;14792;50.886;6.468;2023-03-01T02:29:55;-1.70;99.90
27306;DHT22;14792;50.886;6.468;2023-03-01T02:32:57;-1.70;99.90
27306;DHT22;14792;50.886;6.468;2023-03-01T02:35:59;-1.70;99.90
27306;DHT22;14792;50.886;6.468;2023-03-01T02:39:00;-1.70;99.90
27306;DHT22;14792;50.886;6.468;2023-03-01T02:42:02;-1.70;99.90
27306;DHT22;14792;50.886;6.468;2023-03-01T02:45:03;-1.80;99.90
27306;DHT22;14792;50.886;6.468;2023-03-01T02:48:05;-1.90;99.90
27306;DHT22;14792;50.886;6.468;2023-03-01T02:57:28;-2.00;99.90
27306;DHT22;14792;50.886;6.468;2023-03-01T03:00:35;-2.00;99.90
27306;DHT22;14792;50.886;6.468;2023-03-01T03:03:34;-2.10;99.90
27306;DHT22;14792;50.886;6.468;2023-03-01T03:06:36;-2.10;99.90
27306;DHT22;14792;50.886;6.468;2023-03-01T03:09:37;-2.10;99.90
27306;DHT22;14792;50.886;6.468;2023-03-01T03:12:39;-2.20;99.90
27306;DHT22;14792;50.886;6.468;2023-03-01T03:15:41;-2.20;99.90
27306;DHT22;14792;50.886;6.468;2023-03-01T03:18:42;-2.20;99.90
27306;DHT22;14792;50.886;6.468;2023-03-01T03:21:43;-2.10;99.90
27306;DHT22;14792;50.886;6.468;2023-03-01T03:24:45;-2.20;99.90
27306;DHT22;14792;50.886;6.468;2023-03-01T03:27:47;-2.30;99.90
27306;DHT22;14792;50.886;6.468;2023-03-01T03:30:48;-2.30;99.90
27306;DHT22;14792;50.886;6.468;2023-03-01T03:33:50;-2.30;99.90
27306;DHT22;14792;50.886;6.468;2023-03-01T03:36:54;-2.40;99.90
27306;DHT22;14792;50.886;6.468;2023-03-01T03:39:58;-2.40;99.90
27306;DHT22;14792;50.886;6.468;2023-03-01T03:43:00;-2.40;99.90
27306;DHT22;14792;50.886;6.468;2023-03-01T03:46:02;-2.40;99.90
27306;DHT22;14792;50.886;6.468;2023-03-01T03:49:03;-2.40;99.90
27306;DHT22;14792;50.886;6.468;2023-03-01T03:52:05;-2.40;99.90
27306;DHT22;14792;50.886;6.468;2023-03-01T03:55:07;-2.50;99.90
27306;DHT22;14792;50.886;6.468;2023-03-01T03:58:11;-2.40;99.90
27306;DHT22;14792;50.886;6.468;2023-03-01T04:01:12;-2.40;99.90
27306;DHT22;14792;50.886;6.468;2023-03-01T04:04:14;-2.40;99.90
27306;DHT22;14792;50.886;6.468;2023-03-01T04:07:16;-2.50;99.90
27306;DHT22;14792;50.886;6.468;2023-03-01T04:10:17;-2.50;99.90
27306;DHT22;14792;50.886;6.468;2023-03-01T04:13:20;-2.50;99.90
27306;DHT22;14792;50.886;6.468;2023-03-01T04:16:20;-2.60;99.90
27306;DHT22;14792;50.886;6.468;2023-03-01T04:19:22;-2.60;99.90
27306;DHT22;14792;50.886;6.468;2023-03-01T04:22:23;-2.60;99.90
27306;DHT22;14792;50.886;6.468;2023-03-01T04:25:25;-2.60;99.90
27306;DHT22;14792;50.886;6.468;2023-03-01T04:28:28;-2.60;99.90
27306;DHT22;14792;50.886;6.468;2023-03-01T04:31:28;-2.60;99.90
27306;DHT22;14792;50.886;6.468;2023-03-01T04:34:30;-2.60;99.90
27306;DHT22;14792;50.886;6.468;2023-03-01T04:37:31;-2.70;99.90
27306;DHT22;14792;50.886;6.468;2023-03-01T04:40:33;-2.70;99.90
27306;DHT22;14792;50.886;6.468;2023-03-01T04:43:35;-2.70;99.90
27306;DHT22;14792;50.886;6.468;2023-03-01T04:46:36;-2.80;99.90
27306;DHT22;14792;50.886;6.468;2023-03-01T04:49:38;-2.80;99.90
27306;DHT22;14792;50.886;6.468;2023-03-01T04:52:39;-2.70;99.90
27306;DHT22;14792;50.886;6.468;2023-03-01T04:55:41;-2.70;99.90
27306;DHT22;14792;50.886;6.468;2023-03-01T04:58:43;-2.60;99.90
27306;DHT22;14792;50.886;6.468;2023-03-01T05:01:44;-2.60;99.90
27306;DHT22;14792;50.886;6.468;2023-03-01T05:04:46;-2.60;99.90
27306;DHT22;14792;50.886;6.468;2023-03-01T05:07:47;-2.50;99.90
27306;DHT22;14792;50.886;6.468;2023-03-01T05:10:50;-2.50;99.90
27306;DHT22;14792;50.886;6.468;2023-03-01T05:13:50;-2.50;99.90
27306;DHT22;14792;50.886;6.468;2023-03-01T05:16:52;-2.60;99.90
27306;DHT22;14792;50.886;6.468;2023-03-01T05:19:54;-2.60;99.90
27306;DHT22;14792;50.886;6.468;2023-03-01T05:22:57;-2.60;99.90
27306;DHT22;14792;50.886;6.468;2023-03-01T05:26:01;-2.60;99.90
27306;DHT22;14792;50.886;6.468;2023-03-01T05:29:01;-2.60;99.90
27306;DHT22;14792;50.886;6.468;2023-03-01T05:32:03;-2.60;99.90
27306;DHT22;14792;50.886;6.468;2023-03-01T05:35:05;-2.70;99.90
27306;DHT22;14792;50.886;6.468;2023-03-01T05:38:06;-2.70;99.90
27306;DHT22;14792;50.886;6.468;2023-03-01T05:41:13;-2.70;99.90
27306;DHT22;14792;50.886;6.468;2023-03-01T05:44:09;-2.60;99.90
27306;DHT22;14792;50.886;6.468;2023-03-01T05:47:11;-2.60;99.90
27306;DHT22;14792;50.886;6.468;2023-03-01T05:50:22;-2.60;99.90
27306;DHT22;14792;50.886;6.468;2023-03-01T05:53:23;-2.60;99.90
27306;DHT22;14792;50.886;6.468;2023-03-01T05:56:25;-2.50;99.90
27306;DHT22;14792;50.886;6.468;2023-03-01T05:59:26;-2.60;99.90
27306;DHT22;14792;50.886;6.468;2023-03-01T06:02:28;-2.50;99.90
27306;DHT22;14792;50.886;6.468;2023-03-01T06:05:29;-2.50;99.90
27306;DHT22;14792;50.886;6.468;2023-03-01T06:08:31;-2.50;99.90
27306;DHT22;14792;50.886;6.468;2023-03-01T06:11:35;-2.50;99.90
27306;DHT22;14792;50.886;6.468;2023-03-01T06:14:37;-2.50;99.90
27306;DHT22;14792;50.886;6.468;2023-03-01T06:17:39;-2.50;99.90
27306;DHT22;14792;50.886;6.468;2023-03-01T06:20:40;-2.50;99.90
27306;DHT22;14792;50.886;6.468;2023-03-01T06:23:41;-2.50;99.90
27306;DHT22;14792;50.886;6.468;2023-03-01T06:26:43;-2.50;99.90
27306;DHT22;14792;50.886;6.468;2023-03-01T06:29:45;-2.50;99.90
27306;DHT22;14792;50.886;6.468;2023-03-01T06:32:46;-2.60;99.90
27306;DHT22;14792;50.886;6.468;2023-03-01T06:35:48;-2.60;99.90
27306;DHT22;14792;50.886;6.468;2023-03-01T06:38:49;-2.60;99.90
27306;DHT22;14792;50.886;6.468;2023-03-01T06:41:51;-2.60;99.90
27306;DHT22;14792;50.886;6.468;2023-03-01T06:44:52;-2.50;99.90
27306;DHT22;14792;50.886;6.468;2023-03-01T06:48:01;-2.60;99.90
27306;DHT22;14792;50.886;6.468;2023-03-01T06:50:57;-2.50;99.90
27306;DHT22;14792;50.886;6.468;2023-03-01T06:53:57;-2.60;99.90
27306;DHT22;14792;50.886;6.468;2023-03-01T06:56:59;-2.60;99.90
27306;DHT22;14792;50.886;6.468;2023-03-01T07:00:01;-2.50;99.90
27306;DHT22;14792;50.886;6.468;2023-03-01T07:03:02;-2.50;99.90
27306;DHT22;14792;50.886;6.468;2023-03-01T07:06:04;-2.50;99.90
27306;DHT22;14792;50.886;6.468;2023-03-01T07:09:05;-2.40;99.90
27306;DHT22;14792;50.886;6.468;2023-03-01T07:12:07;-2.30;99.90
27306;DHT22;14792;50.886;6.468;2023-03-01T07:15:09;-2.30;99.90
27306;DHT22;14792;50.886;6.468;2023-03-01T07:18:10;-2.20;99.90
27306;DHT22;14792;50.886;6.468;2023-03-01T07:21:13;-2.00;99.90
27306;DHT22;14792;50.886;6.468;2023-03-01T07:24:13;-1.90;99.90
27306;DHT22;14792;50.886;6.468;2023-03-01T07:27:15;-1.70;99.90
27306;DHT22;14792;50.886;6.468;2023-03-01T07:30:17;-1.40;99.90
27306;DHT22;14792;50.886;6.468;2023-03-01T07:33:18;-1.30;99.90
27306;DHT22;14792;50.886;6.468;2023-03-01T07:36:20;-1.10;99.90
27306;DHT22;14792;50.886;6.468;2023-03-01T07:39:22;-0.80;99.90
27306;DHT22;14792;50.886;6.468;2023-03-01T07:42:24;-0.60;99.90
27306;DHT22;14792;50.886;6.468;2023-03-01T07:45:26;-0.50;99.90
27306;DHT22;14792;50.886;6.468;2023-03-01T07:48:28;-0.20;99.90
27306;DHT22;14792;50.886;6.468;2023-03-01T07:51:29;-0.10;99.90
27306;DHT22;14792;50.886;6.468;2023-03-01T07:54:30;0.10;99.90
27306;DHT22;14792;50.886;6.468;2023-03-01T07:57:32;0.20;99.90
27306;DHT22;14792;50.886;6.468;2023-03-01T08:00:34;0.40;99.90
27306;DHT22;14792;50.886;6.468;2023-03-01T08:03:35;0.40;99.90
27306;DHT22;14792;50.886;6.468;2023-03-01T08:06:37;0.40;99.90
27306;DHT22;14792;50.886;6.468;2023-03-01T08:09:38;0.60;99.90
27306;DHT22;14792;50.886;6.468;2023-03-01T08:12:40;0.60;99.90
27306;DHT22;14792;50.886;6.468;2023-03-01T08:15:42;0.70;99.90
27306;DHT22;14792;50.886;6.468;2023-03-01T08:18:43;0.80;99.90
27306;DHT22;14792;50.886;6.468;2023-03-01T08:21:45;0.80;99.90
27306;DHT22;14792;50.886;6.468;2023-03-01T08:24:46;0.90;99.90
27306;DHT22;14792;50.886;6.468;2023-03-01T08:27:48;1.10;99.90
27306;DHT22;14792;50.886;6.468;2023-03-01T08:30:49;1.10;99.90
27306;DHT22;14792;50.886;6.468;2023-03-01T08:33:52;1.20;99.90
27306;DHT22;14792;50.886;6.468;2023-03-01T08:36:53;1.30;99.90
27306;DHT22;14792;50.886;6.468;2023-03-01T08:39:54;1.40;99.90
27306;DHT22;14792;50.886;6.468;2023-03-01T08:42:56;1.80;99.90
27306;DHT22;14792;50.886;6.468;2023-03-01T08:45:57;2.20;99.90
27306;DHT22;14792;50.886;6.468;2023-03-01T08:48:59;2.30;99.90
27306;DHT22;14792;50.886;6.468;2023-03-01T08:52:01;2.40;99.90
27306;DHT22;14792;50.886;6.468;2023-03-01T08:55:02;2.70;99.90
27306;DHT22;14792;50.886;6.468;2023-03-01T08:58:04;3.00;99.90
27306;DHT22;14792;50.886;6.468;2023-03-01T09:01:12;3.10;99.90
27306;DHT22;14792;50.886;6.468;2023-03-01T09:04:14;3.10;99.90
27306;DHT22;14792;50.886;6.468;2023-03-01T09:07:15;3.10;99.90
27306;DHT22;14792;50.886;6.468;2023-03-01T09:10:16;3.40;99.90
27306;DHT22;14792;50.886;6.468;2023-03-01T09:13:18;3.50;99.90
27306;DHT22;14792;50.886;6.468;2023-03-01T09:16:20;3.50;99.90
27306;DHT22;14792;50.886;6.468;2023-03-01T09:19:21;3.50;99.90
27306;DHT22;14792;50.886;6.468;2023-03-01T09:22:22;3.60;99.90
27306;DHT22;14792;50.886;6.468;2023-03-01T09:25:24;3.70;99.90
27306;DHT22;14792;50.886;6.468;2023-03-01T09:28:26;3.80;99.90
27306;DHT22;14792;50.886;6.468;2023-03-01T09:31:27;3.90;99.90
27306;DHT22;14792;50.886;6.468;2023-03-01T09:34:29;4.10;99.90
27306;DHT22;14792;50.886;6.468;2023-03-01T09:37:34;4.20;99.90
27306;DHT22;14792;50.886;6.468;2023-03-01T09:40:32;4.60;99.90
27306;DHT22;14792;50.886;6.468;2023-03-01T09:43:43;4.40;99.90
27306;DHT22;14792;50.886;6.468;2023-03-01T09:46:44;4.50;99.90
27306;DHT22;14792;50.886;6.468;2023-03-01T09:49:50;4.20;99.90
27306;DHT22;14792;50.886;6.468;2023-03-01T09:53:03;4.20;99.90
27306;DHT22;14792;50.886;6.468;2023-03-01T09:56:22;3.90;99.90
27306;DHT22;14792;50.886;6.468;2023-03-01T09:59:44;4.30;99.90
27306;DHT22;14792;50.886;6.468;2023-03-01T10:02:45;4.40;99.90
27306;DHT22;14792;50.886;6.468;2023-03-01T10:08:57;5.00;99.90
27306;DHT22;14792;50.886;6.468;2023-03-01T10:11:58;5.10;99.90
27306;DHT22;14792;50.886;6.468;2023-03-01T10:15:14;5.30;99.90
27306;DHT22;14792;50.886;6.468;2023-03-01T10:18:12;5.40;99.90
27306;DHT22;14792;50.886;6.468;2023-03-01T10:21:15;5.40;99.90
27306;DHT22;14792;50.886;6.468;2023-03-01T10:24:14;5.50;99.90
27306;DHT22;14792;50.886;6.468;2023-03-01T10:27:42;5.40;99.90
27306;DHT22;14792;50.886;6.468;2023-03-01T10:30:39;5.40;99.90
27306;DHT22;14792;50.886;6.468;2023-03-01T10:33:41;5.50;99.90
27306;DHT22;14792;50.886;6.468;2023-03-01T10:36:43;5.50;99.90
27306;DHT22;14792;50.886;6.468;2023-03-01T10:40:04;5.60;99.90
27306;DHT22;14792;50.886;6.468;2023-03-01T10:43:10;5.60;99.90
27306;DHT22;14792;50.886;6.468;2023-03-01T10:46:33;6.00;99.90
27306;DHT22;14792;50.886;6.468;2023-03-01T10:49:34;6.20;99.90
27306;DHT22;14792;50.886;6.468;2023-03-01T10:52:36;6.30;99.90
27306;DHT22;14792;50.886;6.468;2023-03-01T10:55:37;6.40;99.90
27306;DHT22;14792;50.886;6.468;2023-03-01T10:58:39;6.40;99.90
27306;DHT22;14792;50.886;6.468;2023-03-01T11:01:40;6.80;99.90
27306;DHT22;14792;50.886;6.468;2023-03-01T11:08:04;6.90;99.90
27306;DHT22;14792;50.886;6.468;2023-03-01T11:11:33;7.10;99.90
27306;DHT22;14792;50.886;6.468;2023-03-01T11:14:38;7.10;99.90
27306;DHT22;14792;50.886;6.468;2023-03-01T11:17:39;7.20;99.90
27306;DHT22;14792;50.886;6.468;2023-03-01T11:20:40;7.50;99.90
27306;DHT22;14792;50.886;6.468;2023-03-01T11:23:43;7.10;99.90
27306;DHT22;14792;50.886;6.468;2023-03-01T11:26:47;7.50;99.90
27306;DHT22;14792;50.886;6.468;2023-03-01T11:29:49;7.40;99.90
27306;DHT22;14792;50.886;6.468;2023-03-01T11:33:05;7.60;99.90
27306;DHT22;14792;50.886;6.468;2023-03-01T11:36:10;8.00;99.90
27306;DHT22;14792;50.886;6.468;2023-03-01T11:39:28;8.20;99.90
27306;DHT22;14792;50.886;6.468;2023-03-01T11:42:38;8.10;99.90
27306;DHT22;14792;50.886;6.468;2023-03-01T11:59:17;8.80;99.90
27306;DHT22;14792;50.886;6.468;2023-03-01T12:12:30;8.80;99.90
27306;DHT22;14792;50.886;6.468;2023-03-01T12:15:35;8.70;99.90
27306;DHT22;14792;50.886;6.468;2023-03-01T12:31:57;9.70;99.90
27306;DHT22;14792;50.886;6.468;2023-03-01T12:35:36;9.30;99.90
27306;DHT22;14792;50.886;6.468;2023-03-01T12:45:48;9.50;99.90
27306;DHT22;14792;50.886;6.468;2023-03-01T12:52:03;9.60;99.90
27306;DHT22;14792;50.886;6.468;2023-03-01T12:55:05;9.70;99.90
27306;DHT22;14792;50.886;6.468;2023-03-01T12:58:13;10.10;99.30
27306;DHT22;14792;50.886;6.468;2023-03-01T13:04:35;10.30;97.40
27306;DHT22;14792;50.886;6.468;2023-03-01T13:11:00;10.20;97.70
27306;DHT22;14792;50.886;6.468;2023-03-01T13:17:30;10.10;97.10
27306;DHT22;14792;50.886;6.468;2023-03-01T13:20:34;10.10;97.70
27306;DHT22;14792;50.886;6.468;2023-03-01T13:23:36;10.40;97.20
27306;DHT22;14792;50.886;6.468;2023-03-01T13:27:08;10.10;96.20
27306;DHT22;14792;50.886;6.468;2023-03-01T13:29:48;10.40;97.50
27306;DHT22;14792;50.886;6.468;2023-03-01T13:32:49;10.80;97.50
27306;DHT22;14792;50.886;6.468;2023-03-01T13:35:51;10.50;95.80
27306;DHT22;14792;50.886;6.468;2023-03-01T13:41:57;10.40;95.40
27306;DHT22;14792;50.886;6.468;2023-03-01T13:44:58;10.30;95.90
27306;DHT22;14792;50.886;6.468;2023-03-01T13:48:04;10.40;95.40
27306;DHT22;14792;50.886;6.468;2023-03-01T13:51:07;10.20;95.10
27306;DHT22;14792;50.886;6.468;2023-03-01T13:54:09;10.60;95.10
27306;DHT22;14792;50.886;6.468;2023-03-01T13:57:12;11.00;94.90
27306;DHT22;14792;50.886;6.468;2023-03-01T14:03:29;10.10;96.00
27306;DHT22;14792;50.886;6.468;2023-03-01T14:06:33;10.30;95.80
27306;DHT22;14792;50.886;6.468;2023-03-01T14:09:32;10.40;96.20
27306;DHT22;14792;50.886;6.468;2023-03-01T14:15:54;10.50;95.40
27306;DHT22;14792;50.886;6.468;2023-03-01T14:22:48;10.40;96.20
27306;DHT22;14792;50.886;6.468;2023-03-01T14:25:05;10.50;96.50
27306;DHT22;14792;50.886;6.468;2023-03-01T14:28:13;10.20;96.40
27306;DHT22;14792;50.886;6.468;2023-03-01T14:34:35;10.10;95.80
27306;DHT22;14792;50.886;6.468;2023-03-01T14:37:36;10.20;96.90
27306;DHT22;14792;50.886;6.468;2023-03-01T14:40:38;10.20;96.50
27306;DHT22;14792;50.886;6.468;2023-03-01T14:43:41;10.10;95.80
27306;DHT22;14792;50.886;6.468;2023-03-01T14:46:41;9.90;96.00
27306;DHT22;14792;50.886;6.468;2023-03-01T14:49:43;10.20;96.20
27306;DHT22;14792;50.886;6.468;2023-03-01T14:52:45;10.50;95.90
27306;DHT22;14792;50.886;6.468;2023-03-01T14:55:50;10.50;95.70
27306;DHT22;14792;50.886;6.468;2023-03-01T14:58:53;10.30;96.30
27306;DHT22;14792;50.886;6.468;2023-03-01T15:01:56;10.50;95.20
27306;DHT22;14792;50.886;6.468;2023-03-01T15:04:58;9.90;96.20
27306;DHT22;14792;50.886;6.468;2023-03-01T15:07:58;10.10;95.80
27306;DHT22;14792;50.886;6.468;2023-03-01T15:11:49;10.10;96.10
27306;DHT22;14792;50.886;6.468;2023-03-01T15:14:24;9.70;96.40
27306;DHT22;14792;50.886;6.468;2023-03-01T15:17:23;9.60;96.60
27306;DHT22;14792;50.886;6.468;2023-03-01T15:20:19;9.70;96.80
27306;DHT22;14792;50.886;6.468;2023-03-01T15:23:25;9.40;96.40
27306;DHT22;14792;50.886;6.468;2023-03-01T15:26:29;9.60;96.30
27306;DHT22;14792;50.886;6.468;2023-03-01T15:29:28;9.80;97.00
27306;DHT22;14792;50.886;6.468;2023-03-01T15:32:30;9.80;96.80
27306;DHT22;14792;50.886;6.468;2023-03-01T15:35:43;9.70;96.40
27306;DHT22;14792;50.886;6.468;2023-03-01T15:38:52;9.50;96.80
27306;DHT22;14792;50.886;6.468;2023-03-01T15:41:51;9.50;96.60
27306;DHT22;14792;50.886;6.468;2023-03-01T15:45:09;9.20;97.20
27306;DHT22;14792;50.886;6.468;2023-03-01T15:48:17;9.10;97.40
27306;DHT22;14792;50.886;6.468;2023-03-01T15:51:17;9.10;97.70
27306;DHT22;14792;50.886;6.468;2023-03-01T15:54:19;9.10;97.40
27306;DHT22;14792;50.886;6.468;2023-03-01T15:57:20;8.90;97.40
27306;DHT22;14792;50.886;6.468;2023-03-01T16:00:22;8.90;97.80
27306;DHT22;14792;50.886;6.468;2023-03-01T16:03:23;8.60;98.10
27306;DHT22;14792;50.886;6.468;2023-03-01T16:06:25;8.70;98.50
27306;DHT22;14792;50.886;6.468;2023-03-01T16:09:26;8.90;98.20
27306;DHT22;14792;50.886;6.468;2023-03-01T16:12:28;8.70;98.30
27306;DHT22;14792;50.886;6.468;2023-03-01T16:15:31;8.40;98.40
27306;DHT22;14792;50.886;6.468;2023-03-01T16:18:31;8.20;98.80
27306;DHT22;14792;50.886;6.468;2023-03-01T16:21:33;8.10;98.70
27306;DHT22;14792;50.886;6.468;2023-03-01T16:24:34;7.80;99.40
27306;DHT22;14792;50.886;6.468;2023-03-01T16:27:36;7.50;99.60
27306;DHT22;14792;50.886;6.468;2023-03-01T16:30:38;7.60;99.90
27306;DHT22;14792;50.886;6.468;2023-03-01T16:33:39;7.30;99.60
27306;DHT22;14792;50.886;6.468;2023-03-01T16:36:42;7.20;99.80
27306;DHT22;14792;50.886;6.468;2023-03-01T16:39:42;7.00;99.60
27306;DHT22;14792;50.886;6.468;2023-03-01T16:42:44;6.80;99.90
27306;DHT22;14792;50.886;6.468;2023-03-01T16:45:46;6.70;99.90
27306;DHT22;14792;50.886;6.468;2023-03-01T16:48:47;6.60;99.90
27306;DHT22;14792;50.886;6.468;2023-03-01T16:51:49;6.40;99.90
27306;DHT22;14792;50.886;6.468;2023-03-01T16:54:51;6.30;99.90
27306;DHT22;14792;50.886;6.468;2023-03-01T16:57:52;6.20;99.90
27306;DHT22;14792;50.886;6.468;2023-03-01T17:00:54;6.10;99.90
27306;DHT22;14792;50.886;6.468;2023-03-01T17:03:55;6.10;99.90
27306;DHT22;14792;50.886;6.468;2023-03-01T17:06:57;6.00;99.90
27306;DHT22;14792;50.886;6.468;2023-03-01T17:10:02;5.90;99.90
27306;DHT22;14792;50.886;6.468;2023-03-01T17:13:03;5.90;99.90
27306;DHT22;14792;50.886;6.468;2023-03-01T17:16:08;5.80;99.90
27306;DHT22;14792;50.886;6.468;2023-03-01T17:19:09;5.70;99.90
27306;DHT22;14792;50.886;6.468;2023-03-01T17:22:11;5.60;99.90
27306;DHT22;14792;50.886;6.468;2023-03-01T17:25:12;5.60;99.90
27306;DHT22;14792;50.886;6.468;2023-03-01T17:28:14;5.50;99.90
27306;DHT22;14792;50.886;6.468;2023-03-01T17:31:15;5.40;99.90
27306;DHT22;14792;50.886;6.468;2023-03-01T17:34:17;5.20;99.90
27306;DHT22;14792;50.886;6.468;2023-03-01T17:37:19;5.10;99.90
27306;DHT22;14792;50.886;6.468;2023-03-01T17:40:20;5.00;99.90
27306;DHT22;14792;50.886;6.468;2023-03-01T17:43:22;5.00;99.90
27306;DHT22;14792;50.886;6.468;2023-03-01T17:46:23;4.90;99.90
27306;DHT22;14792;50.886;6.468;2023-03-01T17:49:25;4.90;99.90
27306;DHT22;14792;50.886;6.468;2023-03-01T17:52:27;4.80;99.90
27306;DHT22;14792;50.886;6.468;2023-03-01T17:55:28;4.80;99.90
27306;DHT22;14792;50.886;6.468;2023-03-01T17:58:30;4.80;99.90
27306;DHT22;14792;50.886;6.468;2023-03-01T18:01:31;4.70;99.90
27306;DHT22;14792;50.886;6.468;2023-03-01T18:04:33;4.60;99.90
27306;DHT22;14792;50.886;6.468;2023-03-01T18:07:35;4.50;99.90
27306;DHT22;14792;50.886;6.468;2023-03-01T18:10:36;4.50;99.90
27306;DHT22;14792;50.886;6.468;2023-03-01T18:13:38;4.40;99.90
27306;DHT22;14792;50.886;6.468;2023-03-01T18:16:39;4.40;99.90
27306;DHT22;14792;50.886;6.468;2023-03-01T18:19:41;4.30;99.90
27306;DHT22;14792;50.886;6.468;2023-03-01T18:22:43;4.30;99.90
27306;DHT22;14792;50.886;6.468;2023-03-01T18:25:44;4.30;99.90
27306;DHT22;14792;50.886;6.468;2023-03-01T18:28:46;4.30;99.90
27306;DHT22;14792;50.886;6.468;2023-03-01T18:31:47;4.30;99.90
27306;DHT22;14792;50.886;6.468;2023-03-01T18:34:49;4.30;99.90
27306;DHT22;14792;50.886;6.468;2023-03-01T18:37:50;4.20;99.90
27306;DHT22;14792;50.886;6.468;2023-03-01T18:40:52;4.20;99.90
27306;DHT22;14792;50.886;6.468;2023-03-01T18:43:54;4.20;99.90
27306;DHT22;14792;50.886;6.468;2023-03-01T18:46:55;4.20;99.90
27306;DHT22;14792;50.886;6.468;2023-03-01T18:49:57;4.10;99.90
27306;DHT22;14792;50.886;6.468;2023-03-01T18:52:58;4.10;99.90
27306;DHT22;14792;50.886;6.468;2023-03-01T18:56:00;4.00;99.90
27306;DHT22;14792;50.886;6.468;2023-03-01T18:59:02;4.00;99.90
27306;DHT22;14792;50.886;6.468;2023-03-01T19:02:03;3.90;99.90
27306;DHT22;14792;50.886;6.468;2023-03-01T19:05:05;3.80;99.90
27306;DHT22;14792;50.886;6.468;2023-03-01T19:08:06;3.80;99.90
27306;DHT22;14792;50.886;6.468;2023-03-01T19:11:08;3.80;99.90
27306;DHT22;14792;50.886;6.468;2023-03-01T19:14:10;3.80;99.90
27306;DHT22;14792;50.886;6.468;2023-03-01T19:17:11;3.70;99.90
27306;DHT22;14792;50.886;6.468;2023-03-01T19:20:13;3.70;99.90
27306;DHT22;14792;50.886;6.468;2023-03-01T19:23:14;3.70;99.90
27306;DHT22;14792;50.886;6.468;2023-03-01T19:26:17;3.70;99.90
27306;DHT22;14792;50.886;6.468;2023-03-01T19:29:18;3.60;99.90
27306;DHT22;14792;50.886;6.468;2023-03-01T19:32:19;3.60;99.90
27306;DHT22;14792;50.886;6.468;2023-03-01T19:35:21;3.50;99.90
27306;DHT22;14792;50.886;6.468;2023-03-01T19:38:22;3.40;99.90
27306;DHT22;14792;50.886;6.468;2023-03-01T19:41:24;3.40;99.90
27306;DHT22;14792;50.886;6.468;2023-03-01T19:44:25;3.40;99.90
27306;DHT22;14792;50.886;6.468;2023-03-01T19:47:27;3.30;99.90
27306;DHT22;14792;50.886;6.468;2023-03-01T19:50:29;3.30;99.90
27306;DHT22;14792;50.886;6.468;2023-03-01T19:53:30;3.20;99.90
27306;DHT22;14792;50.886;6.468;2023-03-01T19:56:32;3.10;99.90
27306;DHT22;14792;50.886;6.468;2023-03-01T19:59:33;3.10;99.90
27306;DHT22;14792;50.886;6.468;2023-03-01T20:02:35;3.00;99.90
27306;DHT22;14792;50.886;6.468;2023-03-01T20:05:37;3.00;99.90
27306;DHT22;14792;50.886;6.468;2023-03-01T20:08:39;3.00;99.90
27306;DHT22;14792;50.886;6.468;2023-03-01T20:11:40;2.90;99.90
27306;DHT22;14792;50.886;6.468;2023-03-01T20:14:44;2.90;99.90
27306;DHT22;14792;50.886;6.468;2023-03-01T20:17:46;2.80;99.90
27306;DHT22;14792;50.886;6.468;2023-03-01T20:20:48;2.80;99.90
27306;DHT22;14792;50.886;6.468;2023-03-01T20:23:49;2.70;99.90
27306;DHT22;14792;50.886;6.468;2023-03-01T20:26:51;2.70;99.90
27306;DHT22;14792;50.886;6.468;2023-03-01T20:29:52;2.60;99.90
27306;DHT22;14792;50.886;6.468;2023-03-01T20:32:54;2.60;99.90
27306;DHT22;14792;50.886;6.468;2023-03-01T20:35:55;2.60;99.90
27306;DHT22;14792;50.886;6.468;2023-03-01T20:38:57;2.60;99.90
27306;DHT22;14792;50.886;6.468;2023-03-01T20:41:59;2.50;99.90
27306;DHT22;14792;50.886;6.468;2023-03-01T20:45:00;2.40;99.90
27306;DHT22;14792;50.886;6.468;2023-03-01T20:48:02;2.40;99.90
27306;DHT22;14792;50.886;6.468;2023-03-01T20:51:04;2.50;99.90